Sidney, Nebraska
Current Conditions -  °F | °C
As of 8:53 PM on Sunday 25 Jan 2015 (Local Time) from KSNY Reporting Station
Clear Clear  
Wind Chill: 33°   Ceiling: Unl
Heat Index: 40°   Visibility: 10mi
Dew Point: 30°   Wind: 13mph
Humidity: 68%   Direction: 290°WNW
Pressure: 30.13"   Gusts: NA
Location:  41.14°N, 102.97°W
Report Text: KSNY 260353Z AUTO 29011KT 10SM CLR 04/M01 A3013 RMK AO2 SLP209 T00441011
Loading
Personal Weather Stations






























Interactive Weather Map New forecast layout! Learn more

10-Day Weather Forecast

Advertisements
Track Severe Weather on mobile